createdAt,value
2023-04-24T00:02:47.796Z,3.20
2023-04-24T00:05:35.271Z,3.40
2023-04-24T00:08:23.631Z,3.93
2023-04-24T00:11:10.972Z,3.70
2023-04-24T00:13:58.424Z,4.10
2023-04-24T00:16:45.870Z,3.87
2023-04-24T00:19:33.348Z,3.80
2023-04-24T00:22:21.681Z,3.80
2023-04-24T00:25:09.274Z,4.33
2023-04-24T00:27:56.680Z,4.63
2023-04-24T00:30:44.040Z,4.50
2023-04-24T00:33:31.411Z,4.13
2023-04-24T00:36:20.617Z,4.40
2023-04-24T00:39:09.693Z,4.50
2023-04-24T00:41:57.796Z,4.30
2023-04-24T00:44:45.299Z,4.70
2023-04-24T00:47:34.127Z,4.30
2023-04-24T00:50:22.641Z,4.20
2023-04-24T00:53:10.226Z,4.13
2023-04-24T00:55:58.048Z,4.53
2023-04-24T00:58:46.360Z,4.50
2023-04-24T01:01:33.912Z,4.43
2023-04-24T01:04:21.423Z,4.23
2023-04-24T01:07:11.555Z,3.97
2023-04-24T01:09:59.064Z,4.13
2023-04-24T01:12:46.480Z,4.07
2023-04-24T01:15:33.895Z,4.40
2023-04-24T01:18:22.781Z,4.30
2023-04-24T01:21:10.239Z,4.40
2023-04-24T01:23:57.633Z,4.07
2023-04-24T01:26:45.023Z,5.03
2023-04-24T01:29:32.380Z,4.33
2023-04-24T01:32:19.900Z,5.40
2023-04-24T01:35:08.062Z,5.07
2023-04-24T01:37:55.474Z,4.50
2023-04-24T01:40:42.901Z,4.40
2023-04-24T01:43:30.808Z,4.23
2023-04-24T01:46:18.369Z,5.10
2023-04-24T01:49:05.830Z,4.77
2023-04-24T01:51:53.302Z,4.77
2023-04-24T01:54:40.874Z,5.00
2023-04-24T01:57:28.457Z,5.27
2023-04-24T02:00:16.049Z,5.17
2023-04-24T02:03:03.570Z,5.17
2023-04-24T02:05:51.067Z,6.30
2023-04-24T02:08:38.448Z,7.57
2023-04-24T02:11:26.007Z,5.43
2023-04-24T02:14:13.537Z,5.60
2023-04-24T02:17:01.613Z,5.00
2023-04-24T02:19:49.018Z,5.17
2023-04-24T02:22:36.377Z,5.00
2023-04-24T02:25:23.874Z,4.83
2023-04-24T02:28:11.284Z,4.80
2023-04-24T02:30:59.508Z,4.87
2023-04-24T02:33:46.880Z,4.60
2023-04-24T02:36:34.393Z,4.70
2023-04-24T02:39:21.874Z,5.17
2023-04-24T02:42:09.217Z,4.90
2023-04-24T02:44:56.596Z,4.67
2023-04-24T02:47:43.984Z,4.60
2023-04-24T02:50:31.396Z,4.37
2023-04-24T02:53:18.752Z,4.50
2023-04-24T02:56:06.439Z,5.10
2023-04-24T02:58:53.847Z,4.53
2023-04-24T03:01:41.288Z,4.57
2023-04-24T03:04:28.926Z,4.70
2023-04-24T03:07:17.051Z,4.47
2023-04-24T03:10:04.701Z,4.70
2023-04-24T03:12:52.085Z,4.57
2023-04-24T03:15:39.468Z,5.17
2023-04-24T03:18:26.827Z,8.80
2023-04-24T03:21:14.202Z,19.47
2023-04-24T03:24:02.045Z,20.43
2023-04-24T03:26:49.503Z,18.00
2023-04-24T03:29:36.862Z,14.63
2023-04-24T03:32:25.137Z,11.50
2023-04-24T03:35:12.612Z,9.37
2023-04-24T03:37:59.988Z,7.00
2023-04-24T03:40:47.481Z,10.03
2023-04-24T03:43:35.521Z,3.93
2023-04-24T03:46:23.095Z,5.70
2023-04-24T03:49:10.495Z,3.30
2023-04-24T03:51:57.829Z,3.37
2023-04-24T03:54:45.174Z,4.43
2023-04-24T03:57:32.524Z,4.67
2023-04-24T04:00:20.408Z,5.43
2023-04-24T04:03:08.182Z,4.70
2023-04-24T04:05:55.834Z,2.73
2023-04-24T04:08:43.195Z,4.07
2023-04-24T04:11:31.520Z,6.10
2023-04-24T04:14:18.980Z,4.77
2023-04-24T04:17:06.337Z,3.10
2023-04-24T04:19:53.754Z,4.23
2023-04-24T04:22:44.091Z,2.83
2023-04-24T04:25:32.002Z,2.80
2023-04-24T04:28:20.781Z,2.80
2023-04-24T04:31:08.753Z,3.10
2023-04-24T04:33:56.135Z,3.20
2023-04-24T04:36:44.008Z,2.67
2023-04-24T04:39:31.557Z,2.80
2023-04-24T04:42:19.856Z,4.43
2023-04-24T04:45:09.703Z,2.33
2023-04-24T04:47:57.661Z,2.70
2023-04-24T04:50:45.496Z,4.00
2023-04-24T04:53:33.029Z,7.60
2023-04-24T04:56:20.411Z,4.13
2023-04-24T04:59:07.794Z,6.00
2023-04-24T05:01:55.351Z,3.40
2023-04-24T05:04:43.114Z,2.53
2023-04-24T05:07:30.790Z,1.97
2023-04-24T05:10:18.129Z,2.00
2023-04-24T05:13:05.806Z,2.23
2023-04-24T05:15:53.147Z,9.00
2023-04-24T05:18:40.491Z,5.77
2023-04-24T05:21:27.858Z,2.07
2023-04-24T05:24:15.279Z,1.97
2023-04-24T05:27:03.233Z,2.60
2023-04-24T05:29:50.620Z,2.30
2023-04-24T05:32:38.044Z,2.27
2023-04-24T05:35:25.939Z,2.10
2023-04-24T05:38:13.930Z,2.10
2023-04-24T05:41:01.878Z,2.10
2023-04-24T05:43:49.237Z,1.90
2023-04-24T05:46:36.799Z,2.20
2023-04-24T05:49:24.334Z,2.40
2023-04-24T05:52:11.737Z,1.90
2023-04-24T05:54:59.099Z,1.70
2023-04-24T05:57:46.789Z,1.77
2023-04-24T06:00:34.439Z,1.90
2023-04-24T06:03:22.305Z,1.80
2023-04-24T06:06:10.042Z,1.53
2023-04-24T06:08:57.957Z,1.50
2023-04-24T06:11:45.376Z,1.60
2023-04-24T06:14:32.798Z,1.30
2023-04-24T06:17:20.295Z,1.40
2023-04-24T06:20:08.923Z,1.40
2023-04-24T06:22:56.505Z,1.50
2023-04-24T06:25:43.911Z,1.53
2023-04-24T06:28:31.256Z,1.30
2023-04-24T06:31:18.618Z,1.10
2023-04-24T06:34:06.174Z,1.70
2023-04-24T06:36:53.558Z,1.57
2023-04-24T06:39:41.401Z,1.50
2023-04-24T06:42:28.886Z,1.47
2023-04-24T06:45:16.373Z,1.40
2023-04-24T06:48:03.825Z,1.70
2023-04-24T06:50:51.361Z,1.57
2023-04-24T06:53:38.724Z,1.60
2023-04-24T06:56:26.253Z,1.70
2023-04-24T06:59:13.625Z,1.60
2023-04-24T07:02:01.224Z,1.60
2023-04-24T07:04:48.644Z,1.70
2023-04-24T07:07:38.560Z,1.50
2023-04-24T07:10:28.057Z,1.63
2023-04-24T07:13:15.816Z,1.70
2023-04-24T07:16:03.525Z,1.52
2023-04-24T07:18:51.104Z,1.60
2023-04-24T07:21:38.445Z,1.70
2023-04-24T07:27:17.972Z,1.60
2023-04-24T07:30:05.855Z,1.60
2023-04-24T07:32:53.249Z,2.10
2023-04-24T07:35:40.741Z,1.52
2023-04-24T07:38:28.184Z,1.65
2023-04-24T07:41:15.994Z,1.42
2023-04-24T07:44:03.417Z,1.70
2023-04-24T07:46:50.975Z,1.73
2023-04-24T07:49:38.416Z,1.50
2023-04-24T07:52:26.078Z,1.80
2023-04-24T07:55:13.434Z,1.80
2023-04-24T07:58:00.838Z,1.70
2023-04-24T08:00:48.484Z,1.93
2023-04-24T08:03:36.173Z,1.73
2023-04-24T08:06:23.897Z,1.90
2023-04-24T08:09:11.318Z,2.00
2023-04-24T08:11:58.750Z,1.97
2023-04-24T08:14:46.250Z,1.90
2023-04-24T08:17:33.808Z,1.70
2023-04-24T08:20:21.301Z,2.00
2023-04-24T08:23:08.852Z,1.77
2023-04-24T08:25:56.255Z,1.80
2023-04-24T08:28:44.083Z,1.93
2023-04-24T08:31:31.754Z,1.90
2023-04-24T08:34:19.193Z,2.00
2023-04-24T08:37:06.809Z,1.90
2023-04-24T08:39:54.437Z,1.80
2023-04-24T08:42:44.296Z,1.90
2023-04-24T08:45:31.790Z,1.90
2023-04-24T08:48:29.823Z,1.80
2023-04-24T08:51:18.471Z,1.80
2023-04-24T08:54:06.428Z,1.60
2023-04-24T08:56:55.669Z,1.70
2023-04-24T08:59:43.858Z,1.80
2023-04-24T09:02:32.506Z,2.03
2023-04-24T09:05:20.108Z,1.77
2023-04-24T09:08:08.486Z,1.90
2023-04-24T09:10:55.953Z,1.80
2023-04-24T09:13:43.849Z,1.88
2023-04-24T09:16:31.543Z,2.00
2023-04-24T09:19:19.216Z,2.00
2023-04-24T09:22:07.549Z,2.00
2023-04-24T09:25:06.459Z,2.25
2023-04-24T09:27:56.040Z,2.00
2023-04-24T09:30:43.421Z,2.63
2023-04-24T09:33:31.235Z,2.28
2023-04-24T09:36:19.007Z,2.78
2023-04-24T09:39:09.109Z,2.20
2023-04-24T09:42:00.917Z,2.55
2023-04-24T09:44:58.839Z,2.90
2023-04-24T09:47:55.211Z,2.88
2023-04-24T09:50:48.023Z,3.00
2023-04-24T09:53:35.678Z,3.20
2023-04-24T09:56:23.656Z,4.13
2023-04-24T09:59:11.147Z,4.10
2023-04-24T10:02:00.003Z,4.07
2023-04-24T10:05:01.004Z,3.90
2023-04-24T10:07:50.079Z,3.57
2023-04-24T10:10:41.020Z,4.17
2023-04-24T10:13:29.502Z,3.60
2023-04-24T10:16:17.004Z,4.03
2023-04-24T10:19:04.653Z,4.00
2023-04-24T10:21:52.077Z,3.47
2023-04-24T10:24:39.997Z,4.00
2023-04-24T10:27:28.286Z,3.93
2023-04-24T10:30:16.094Z,4.00
2023-04-24T10:33:08.001Z,3.67
2023-04-24T10:35:55.629Z,3.53
2023-04-24T10:38:44.760Z,3.10
2023-04-24T10:41:32.892Z,3.20
2023-04-24T10:44:23.844Z,3.10
2023-04-24T10:47:16.996Z,2.97
2023-04-24T10:50:09.230Z,3.23
2023-04-24T10:53:07.230Z,3.40
2023-04-24T10:56:03.925Z,3.47
2023-04-24T10:58:53.241Z,3.70
2023-04-24T11:01:40.715Z,3.50
2023-04-24T11:04:32.566Z,3.23
2023-04-24T11:07:22.497Z,3.60
2023-04-24T11:10:09.913Z,3.90
2023-04-24T11:12:57.351Z,3.50
2023-04-24T11:15:44.803Z,4.03
2023-04-24T11:18:38.800Z,3.87
2023-04-24T11:21:27.224Z,4.07
2023-04-24T11:24:28.081Z,4.63
2023-04-24T11:27:17.140Z,4.70
2023-04-24T11:30:05.257Z,4.23
2023-04-24T11:32:53.029Z,5.00
2023-04-24T11:35:43.320Z,5.37
2023-04-24T11:38:30.740Z,4.60
2023-04-24T11:41:18.195Z,4.93
2023-04-24T11:44:07.959Z,5.43
2023-04-24T11:46:57.714Z,5.20
2023-04-24T11:49:45.534Z,5.40
2023-04-24T11:52:33.380Z,5.37
2023-04-24T11:55:20.930Z,5.50
2023-04-24T11:58:08.430Z,5.70
2023-04-24T12:00:59.193Z,5.60
2023-04-24T12:03:50.283Z,5.30
2023-04-24T12:06:37.893Z,6.57
2023-04-24T12:09:25.272Z,5.93
2023-04-24T12:12:13.612Z,6.63
2023-04-24T12:15:02.331Z,6.20
2023-04-24T12:17:52.234Z,6.40
2023-04-24T12:20:39.728Z,6.57
2023-04-24T12:23:37.002Z,5.67
2023-04-24T12:26:25.421Z,6.30
2023-04-24T12:29:13.133Z,5.77
2023-04-24T12:32:00.686Z,5.60
2023-04-24T12:34:48.120Z,5.83
2023-04-24T12:37:37.284Z,5.57
2023-04-24T12:40:27.007Z,6.20
2023-04-24T12:43:19.680Z,5.87
2023-04-24T12:46:07.120Z,6.53
2023-04-24T12:49:13.322Z,6.47
2023-04-24T12:52:00.839Z,5.87
2023-04-24T12:54:48.200Z,6.23
2023-04-24T12:57:35.980Z,6.30
2023-04-24T13:00:23.424Z,5.20
2023-04-24T13:03:10.958Z,5.37
2023-04-24T13:05:58.381Z,5.10
2023-04-24T13:08:45.756Z,5.40
2023-04-24T13:11:33.200Z,5.80
2023-04-24T13:14:20.539Z,5.50
2023-04-24T13:17:08.592Z,5.27
2023-04-24T13:19:56.174Z,5.13
2023-04-24T13:22:43.543Z,4.47
2023-04-24T13:25:32.113Z,4.30
2023-04-24T13:28:19.511Z,4.77
2023-04-24T13:31:07.328Z,4.50
2023-04-24T13:33:54.670Z,4.50
2023-04-24T13:36:42.069Z,4.47
2023-04-24T13:39:29.476Z,4.20
2023-04-24T13:42:16.905Z,4.10
2023-04-24T13:45:17.388Z,4.30
2023-04-24T13:48:11.928Z,4.03
2023-04-24T13:51:00.556Z,4.63
2023-04-24T13:53:47.980Z,4.83
2023-04-24T13:56:35.577Z,4.70
2023-04-24T13:59:22.933Z,4.83
2023-04-24T14:02:10.492Z,5.17
2023-04-24T14:04:58.010Z,5.07
2023-04-24T14:07:45.490Z,5.20
2023-04-24T14:10:32.946Z,5.50
2023-04-24T14:13:20.363Z,5.97
2023-04-24T14:16:07.868Z,5.37
2023-04-24T14:18:55.779Z,6.17
2023-04-24T14:21:43.197Z,5.87
2023-04-24T14:24:30.548Z,5.13
2023-04-24T14:27:17.951Z,5.53
2023-04-24T14:30:05.913Z,4.47
2023-04-24T14:32:53.382Z,4.27
2023-04-24T14:35:42.904Z,4.20
2023-04-24T14:38:31.280Z,4.70
2023-04-24T14:41:18.637Z,5.23
2023-04-24T14:44:06.306Z,5.30
2023-04-24T14:46:54.335Z,5.93
2023-04-24T14:49:41.816Z,5.00
2023-04-24T14:52:29.216Z,4.43
2023-04-24T14:55:17.211Z,4.70
2023-04-24T14:58:05.348Z,4.70
2023-04-24T15:00:55.253Z,4.20
2023-04-24T15:03:42.816Z,3.90
2023-04-24T15:06:32.677Z,4.13
2023-04-24T15:09:20.033Z,3.97
2023-04-24T15:12:07.746Z,4.10
2023-04-24T15:14:55.176Z,4.47
2023-04-24T15:17:42.620Z,4.10
2023-04-24T15:20:30.005Z,4.20
2023-04-24T15:23:17.520Z,4.00
2023-04-24T15:26:04.937Z,4.03
2023-04-24T15:28:52.761Z,4.10
2023-04-24T15:31:41.161Z,3.80
2023-04-24T15:34:28.812Z,3.50
2023-04-24T15:37:16.633Z,3.90
2023-04-24T15:40:06.270Z,3.80
2023-04-24T15:42:53.870Z,3.67
2023-04-24T15:45:41.347Z,4.17
2023-04-24T15:48:29.407Z,3.57
2023-04-24T15:51:16.810Z,3.40
2023-04-24T15:54:04.296Z,4.55
2023-04-24T15:56:51.887Z,5.77
2023-04-24T15:59:39.829Z,5.97
2023-04-24T16:02:27.426Z,6.80
2023-04-24T16:05:15.021Z,7.40
2023-04-24T16:08:02.658Z,8.10
2023-04-24T16:10:50.111Z,8.00
2023-04-24T16:13:37.491Z,8.30
2023-04-24T16:16:24.924Z,8.03
2023-04-24T16:19:12.351Z,7.50
2023-04-24T16:21:59.877Z,7.30
2023-04-24T16:24:47.978Z,8.20
2023-04-24T16:27:35.586Z,7.47
2023-04-24T16:30:22.988Z,7.37
2023-04-24T16:33:10.958Z,6.40
2023-04-24T16:35:58.382Z,4.00
2023-04-24T16:38:46.134Z,4.03
2023-04-24T16:41:33.770Z,3.33
2023-04-24T16:44:21.364Z,3.33
2023-04-24T16:47:09.218Z,2.60
2023-04-24T16:49:56.705Z,2.83
2023-04-24T16:52:44.498Z,3.67
2023-04-24T16:55:31.986Z,3.60
2023-04-24T16:58:19.367Z,3.87
2023-04-24T17:01:06.804Z,4.60
2023-04-24T17:03:54.358Z,3.10
2023-04-24T17:06:42.006Z,3.03
2023-04-24T17:09:29.526Z,3.93
2023-04-24T17:12:16.915Z,4.30
2023-04-24T17:15:05.759Z,4.00
2023-04-24T17:17:53.234Z,3.77
2023-04-24T17:20:40.628Z,3.63
2023-04-24T17:23:28.001Z,3.87
2023-04-24T17:26:15.512Z,3.97
2023-04-24T17:29:03.474Z,4.03
2023-04-24T17:31:51.925Z,3.83
2023-04-24T17:34:39.602Z,4.17
2023-04-24T17:37:27.007Z,3.97
2023-04-24T17:40:14.585Z,4.27
2023-04-24T17:43:01.946Z,3.80
2023-04-24T17:45:50.163Z,3.87
2023-04-24T17:48:37.945Z,3.80
2023-04-24T17:51:25.949Z,3.47
2023-04-24T17:54:13.318Z,3.43
2023-04-24T17:57:01.615Z,3.63
2023-04-24T17:59:49.055Z,3.57
2023-04-24T18:02:36.890Z,4.27
2023-04-24T18:05:24.314Z,3.93
2023-04-24T18:08:11.661Z,3.57
2023-04-24T18:10:59.056Z,3.83
2023-04-24T18:13:46.623Z,4.80
2023-04-24T18:16:34.121Z,4.10
2023-04-24T18:19:21.637Z,5.00
2023-04-24T18:22:09.033Z,4.97
2023-04-24T18:24:56.473Z,4.47
2023-04-24T18:27:43.904Z,5.03
2023-04-24T18:30:32.376Z,4.87
2023-04-24T18:33:19.803Z,5.50
2023-04-24T18:36:07.196Z,5.50
2023-04-24T18:38:54.556Z,5.67
2023-04-24T18:41:41.924Z,5.93
2023-04-24T18:44:29.394Z,5.67
2023-04-24T18:47:16.745Z,5.50
2023-04-24T18:50:07.869Z,5.80
2023-04-24T18:52:55.385Z,6.40
2023-04-24T18:55:42.779Z,5.37
2023-04-24T18:58:30.374Z,6.73
2023-04-24T19:01:17.841Z,6.43
2023-04-24T19:04:05.420Z,6.37
2023-04-24T19:06:52.795Z,6.67
2023-04-24T19:09:40.468Z,6.00
2023-04-24T19:12:27.854Z,5.90
2023-04-24T19:15:15.221Z,6.17
2023-04-24T19:18:02.691Z,5.73
2023-04-24T19:20:50.306Z,5.97
2023-04-24T19:23:39.682Z,5.23
2023-04-24T19:26:28.250Z,4.97
2023-04-24T19:29:15.616Z,5.13
2023-04-24T19:32:03.062Z,4.83
2023-04-24T19:34:50.483Z,5.10
2023-04-24T19:37:37.930Z,4.40
2023-04-24T19:40:25.434Z,4.80
2023-04-24T19:43:12.787Z,4.50
2023-04-24T19:46:00.262Z,3.87
2023-04-24T19:48:47.879Z,4.47
2023-04-24T19:51:35.906Z,3.73
2023-04-24T19:54:23.751Z,4.17
2023-04-24T19:57:11.120Z,3.67
2023-04-24T19:59:58.508Z,3.60
2023-04-24T20:02:46.012Z,3.40
2023-04-24T20:05:33.748Z,2.80
2023-04-24T20:08:21.078Z,2.67
2023-04-24T20:11:08.463Z,2.90
2023-04-24T20:13:56.445Z,2.90
2023-04-24T20:16:43.824Z,2.77
2023-04-24T20:19:31.219Z,2.90
2023-04-24T20:22:18.668Z,3.00
2023-04-24T20:25:09.789Z,2.97
2023-04-24T20:27:57.110Z,2.53
2023-04-24T20:30:44.489Z,2.83
2023-04-24T20:33:32.281Z,2.83
2023-04-24T20:36:19.646Z,2.70
2023-04-24T20:39:08.012Z,2.70
2023-04-24T20:41:55.685Z,3.00
2023-04-24T20:44:45.452Z,3.23
2023-04-24T20:47:32.879Z,2.57
2023-04-24T20:50:20.322Z,2.93
2023-04-24T20:53:09.192Z,2.90
2023-04-24T20:55:56.540Z,3.00
2023-04-24T20:58:47.423Z,3.73
2023-04-24T21:01:34.839Z,3.20
2023-04-24T21:04:22.268Z,3.13
2023-04-24T21:07:10.292Z,3.37
2023-04-24T21:09:57.656Z,3.67
2023-04-24T21:12:45.116Z,3.87
2023-04-24T21:15:32.494Z,3.87
2023-04-24T21:18:19.867Z,3.60
2023-04-24T21:21:10.593Z,2.93
2023-04-24T21:23:57.925Z,3.43
2023-04-24T21:26:46.620Z,3.20
2023-04-24T21:29:35.687Z,3.63
2023-04-24T21:32:23.107Z,3.40
2023-04-24T21:35:10.620Z,3.90
2023-04-24T21:37:58.001Z,3.57
2023-04-24T21:40:45.512Z,4.03
2023-04-24T21:43:43.906Z,4.23
2023-04-24T21:46:32.369Z,3.40
2023-04-24T21:49:19.773Z,3.50
2023-04-24T21:52:07.759Z,3.87
2023-04-24T21:54:55.240Z,4.27
2023-04-24T21:57:42.726Z,3.57
2023-04-24T22:00:30.302Z,3.80
2023-04-24T22:03:17.890Z,4.23
2023-04-24T22:06:05.383Z,3.60
2023-04-24T22:08:52.834Z,4.00
2023-04-24T22:11:41.651Z,4.53
2023-04-24T22:14:29.009Z,4.47
2023-04-24T22:17:17.258Z,5.20
2023-04-24T22:20:05.596Z,4.57
2023-04-24T22:22:53.230Z,4.43
2023-04-24T22:25:40.564Z,4.93
2023-04-24T22:28:27.950Z,4.47
2023-04-24T22:31:15.483Z,4.97
2023-04-24T22:34:02.863Z,5.17
2023-04-24T22:36:50.215Z,4.70
2023-04-24T22:39:37.680Z,4.50
2023-04-24T22:42:25.368Z,5.00
2023-04-24T22:45:13.592Z,4.97
2023-04-24T22:48:01.084Z,4.73
2023-04-24T22:50:48.557Z,4.23
2023-04-24T22:53:36.604Z,4.40
2023-04-24T22:56:23.944Z,4.77
2023-04-24T22:59:11.287Z,5.43
2023-04-24T23:02:01.677Z,4.93
2023-04-24T23:04:49.092Z,5.33
2023-04-24T23:07:37.591Z,6.10
2023-04-24T23:10:25.024Z,5.50
2023-04-24T23:13:12.418Z,5.70
2023-04-24T23:16:00.102Z,5.63
2023-04-24T23:18:47.704Z,5.63
2023-04-24T23:21:35.271Z,5.87
2023-04-24T23:24:22.907Z,5.50
2023-04-24T23:27:10.316Z,5.90
2023-04-24T23:29:57.700Z,5.57
2023-04-24T23:32:45.486Z,5.70
2023-04-24T23:35:32.988Z,5.47
2023-04-24T23:38:20.442Z,6.00
2023-04-24T23:41:07.866Z,4.80
2023-04-24T23:43:55.229Z,5.60
2023-04-24T23:46:42.595Z,4.77
2023-04-24T23:49:29.955Z,5.40
2023-04-24T23:52:17.311Z,4.83
2023-04-24T23:55:04.957Z,4.90
2023-04-24T23:57:52.330Z,5.10
